sensor_id;sensor_type;location;lat;lon;timestamp;noise_LAeq;noise_LA_min;noise_LA_max;noise_LA01;noise_LA95
61286;Laerm;56412;53.148;8.204;2022-09-09T00:01:06;42.12;37.29;47.12;;
61286;Laerm;56412;53.148;8.204;2022-09-09T00:03:47;69.06;38.65;89.40;;
61286;Laerm;56412;53.148;8.204;2022-09-09T00:06:30;59.71;37.29;77.06;;
61286;Laerm;56412;53.148;8.204;2022-09-09T00:11:38;41.28;36.80;55.30;;
61286;Laerm;56412;53.148;8.204;2022-09-09T00:14:13;41.10;37.51;47.44;;
61286;Laerm;56412;53.148;8.204;2022-09-09T00:16:47;42.32;37.92;49.44;;
61286;Laerm;56412;53.148;8.204;2022-09-09T00:19:24;42.25;37.72;45.96;;
61286;Laerm;56412;53.148;8.204;2022-09-09T00:24:43;42.52;37.72;47.03;;
61286;Laerm;56412;53.148;8.204;2022-09-09T00:29:58;40.49;35.96;46.40;;
61286;Laerm;56412;53.148;8.204;2022-09-09T00:32:29;40.25;35.64;45.99;;
61286;Laerm;56412;53.148;8.204;2022-09-09T00:34:58;40.22;35.96;44.87;;
61286;Laerm;56412;53.148;8.204;2022-09-09T00:37:26;41.23;36.26;46.78;;
61286;Laerm;56412;53.148;8.204;2022-09-09T00:39:53;41.66;37.72;47.96;;
61286;Laerm;56412;53.148;8.204;2022-09-09T00:42:26;41.39;37.72;45.71;;
61286;Laerm;56412;53.148;8.204;2022-09-09T00:47:54;42.05;37.92;48.50;;
61286;Laerm;56412;53.148;8.204;2022-09-09T00:50:36;41.94;38.48;45.71;;
61286;Laerm;56412;53.148;8.204;2022-09-09T00:53:38;41.33;37.72;45.50;;
61286;Laerm;56412;53.148;8.204;2022-09-09T00:56:30;42.56;36.80;49.92;;
61286;Laerm;56412;53.148;8.204;2022-09-09T01:01:53;41.82;38.30;47.22;;
61286;Laerm;56412;53.148;8.204;2022-09-09T01:04:27;42.99;37.92;55.99;;
61286;Laerm;56412;53.148;8.204;2022-09-09T01:07:05;41.91;37.05;48.34;;
61286;Laerm;56412;53.148;8.204;2022-09-09T01:09:54;41.89;37.51;49.80;;
61286;Laerm;56412;53.148;8.204;2022-09-09T01:12:28;43.93;37.29;49.30;;
61286;Laerm;56412;53.148;8.204;2022-09-09T01:15:11;42.43;38.30;47.03;;
61286;Laerm;56412;53.148;8.204;2022-09-09T01:17:55;44.31;40.63;49.81;;
61286;Laerm;56412;53.148;8.204;2022-09-09T01:20:25;49.94;39.68;65.86;;
61286;Laerm;56412;53.148;8.204;2022-09-09T01:23:19;41.26;37.29;44.91;;
61286;Laerm;56412;53.148;8.204;2022-09-09T01:26:13;41.90;37.29;47.33;;
61286;Laerm;56412;53.148;8.204;2022-09-09T01:28:44;41.84;36.80;48.62;;
61286;Laerm;56412;53.148;8.204;2022-09-09T01:31:15;42.24;38.30;47.86;;
61286;Laerm;56412;53.148;8.204;2022-09-09T01:33:42;47.83;37.29;66.41;;
61286;Laerm;56412;53.148;8.204;2022-09-09T01:36:18;42.55;37.51;58.30;;
61286;Laerm;56412;53.148;8.204;2022-09-09T01:38:46;41.52;37.72;44.14;;
61286;Laerm;56412;53.148;8.204;2022-09-09T01:41:11;45.24;38.97;52.22;;
61286;Laerm;56412;53.148;8.204;2022-09-09T01:43:37;43.59;40.30;47.36;;
61286;Laerm;56412;53.148;8.204;2022-09-09T01:46:02;41.43;37.51;44.41;;
61286;Laerm;56412;53.148;8.204;2022-09-09T01:48:28;42.34;38.65;49.75;;
61286;Laerm;56412;53.148;8.204;2022-09-09T01:50:55;41.51;38.12;45.33;;
61286;Laerm;56412;53.148;8.204;2022-09-09T01:53:21;42.04;37.72;51.41;;
61286;Laerm;56412;53.148;8.204;2022-09-09T01:56:18;42.05;38.65;47.96;;
61286;Laerm;56412;53.148;8.204;2022-09-09T02:04:47;43.78;39.27;48.72;;
61286;Laerm;56412;53.148;8.204;2022-09-09T02:09:58;44.99;38.12;59.62;;
61286;Laerm;56412;53.148;8.204;2022-09-09T02:12:27;42.46;38.48;50.83;;
61286;Laerm;56412;53.148;8.204;2022-09-09T02:15:02;43.66;39.68;50.62;;
61286;Laerm;56412;53.148;8.204;2022-09-09T02:17:31;42.88;39.27;49.87;;
61286;Laerm;56412;53.148;8.204;2022-09-09T02:20:07;43.95;40.83;50.61;;
61286;Laerm;56412;53.148;8.204;2022-09-09T02:22:35;48.43;39.81;64.21;;
61286;Laerm;56412;53.148;8.204;2022-09-09T02:25:07;47.41;41.31;63.84;;
61286;Laerm;56412;53.148;8.204;2022-09-09T02:27:33;43.95;40.06;51.39;;
61286;Laerm;56412;53.148;8.204;2022-09-09T02:30:01;43.19;39.68;47.72;;
61286;Laerm;56412;53.148;8.204;2022-09-09T02:32:29;43.17;39.81;47.15;;
61286;Laerm;56412;53.148;8.204;2022-09-09T02:35:07;45.85;39.12;61.41;;
61286;Laerm;56412;53.148;8.204;2022-09-09T02:37:37;43.67;39.41;52.72;;
61286;Laerm;56412;53.148;8.204;2022-09-09T02:40:08;45.69;39.12;60.49;;
61286;Laerm;56412;53.148;8.204;2022-09-09T02:42:42;47.86;40.06;65.00;;
61286;Laerm;56412;53.148;8.204;2022-09-09T02:45:10;43.69;40.41;49.11;;
61286;Laerm;56412;53.148;8.204;2022-09-09T02:47:41;43.00;38.97;47.57;;
61286;Laerm;56412;53.148;8.204;2022-09-09T02:53:16;46.76;40.18;62.66;;
61286;Laerm;56412;53.148;8.204;2022-09-09T02:55:47;43.74;39.81;53.91;;
61286;Laerm;56412;53.148;8.204;2022-09-09T02:58:16;43.75;40.06;48.06;;
61286;Laerm;56412;53.148;8.204;2022-09-09T03:00:43;46.60;39.81;62.46;;
61286;Laerm;56412;53.148;8.204;2022-09-09T03:03:09;44.23;40.83;53.01;;
61286;Laerm;56412;53.148;8.204;2022-09-09T03:05:35;43.54;40.30;46.90;;
61286;Laerm;56412;53.148;8.204;2022-09-09T03:08:01;43.67;40.38;49.96;;
61286;Laerm;56412;53.148;8.204;2022-09-09T03:10:27;43.93;41.03;51.08;;
61286;Laerm;56412;53.148;8.204;2022-09-09T03:12:52;44.53;42.28;49.08;;
61286;Laerm;56412;53.148;8.204;2022-09-09T03:15:18;44.47;41.31;50.79;;
61286;Laerm;56412;53.148;8.204;2022-09-09T03:17:43;44.06;41.31;48.27;;
61286;Laerm;56412;53.148;8.204;2022-09-09T03:20:09;44.54;42.42;49.08;;
61286;Laerm;56412;53.148;8.204;2022-09-09T03:22:35;50.13;41.66;66.93;;
61286;Laerm;56412;53.148;8.204;2022-09-09T03:25:00;58.38;42.95;74.27;;
61286;Laerm;56412;53.148;8.204;2022-09-09T03:27:26;44.03;41.58;49.58;;
61286;Laerm;56412;53.148;8.204;2022-09-09T03:29:52;47.48;41.82;62.05;;
61286;Laerm;56412;53.148;8.204;2022-09-09T03:32:18;44.53;41.74;56.10;;
61286;Laerm;56412;53.148;8.204;2022-09-09T03:34:44;45.03;42.76;50.29;;
61286;Laerm;56412;53.148;8.204;2022-09-09T03:37:09;46.94;42.69;60.43;;
61286;Laerm;56412;53.148;8.204;2022-09-09T03:39:35;51.96;42.13;67.62;;
61286;Laerm;56412;53.148;8.204;2022-09-09T03:42:00;47.14;42.42;63.01;;
61286;Laerm;56412;53.148;8.204;2022-09-09T03:44:29;46.41;41.82;61.17;;
61286;Laerm;56412;53.148;8.204;2022-09-09T03:46:54;47.12;41.13;61.50;;
61286;Laerm;56412;53.148;8.204;2022-09-09T03:49:19;44.02;41.66;54.19;;
61286;Laerm;56412;53.148;8.204;2022-09-09T03:51:45;44.48;42.13;49.68;;
61286;Laerm;56412;53.148;8.204;2022-09-09T03:54:10;44.46;42.63;46.90;;
61286;Laerm;56412;53.148;8.204;2022-09-09T03:56:36;46.19;42.28;61.25;;
61286;Laerm;56412;53.148;8.204;2022-09-09T03:59:02;44.46;41.66;47.00;;
61286;Laerm;56412;53.148;8.204;2022-09-09T04:01:27;44.35;42.42;53.52;;
61286;Laerm;56412;53.148;8.204;2022-09-09T04:03:53;47.10;41.58;61.87;;
61286;Laerm;56412;53.148;8.204;2022-09-09T04:06:19;46.51;41.98;60.46;;
61286;Laerm;56412;53.148;8.204;2022-09-09T04:08:46;46.71;42.69;59.79;;
61286;Laerm;56412;53.148;8.204;2022-09-09T04:11:14;66.45;42.82;77.93;;
61286;Laerm;56412;53.148;8.204;2022-09-09T04:13:40;47.91;43.36;76.90;;
61286;Laerm;56412;53.148;8.204;2022-09-09T04:16:07;53.11;43.13;75.42;;
61286;Laerm;56412;53.148;8.204;2022-09-09T04:18:34;48.30;43.19;60.91;;
61286;Laerm;56412;53.148;8.204;2022-09-09T04:21:00;50.04;43.36;64.56;;
61286;Laerm;56412;53.148;8.204;2022-09-09T04:23:27;45.69;43.53;58.40;;
61286;Laerm;56412;53.148;8.204;2022-09-09T04:25:55;47.68;42.89;62.24;;
61286;Laerm;56412;53.148;8.204;2022-09-09T04:28:23;47.71;43.13;57.93;;
61286;Laerm;56412;53.148;8.204;2022-09-09T04:30:49;54.99;42.76;67.85;;
61286;Laerm;56412;53.148;8.204;2022-09-09T04:33:15;47.00;43.01;60.96;;
61286;Laerm;56412;53.148;8.204;2022-09-09T04:35:47;48.44;43.69;66.09;;
61286;Laerm;56412;53.148;8.204;2022-09-09T04:38:13;48.88;43.01;64.01;;
61286;Laerm;56412;53.148;8.204;2022-09-09T04:40:39;47.78;42.82;63.44;;
61286;Laerm;56412;53.148;8.204;2022-09-09T04:43:08;57.61;43.74;71.23;;
61286;Laerm;56412;53.148;8.204;2022-09-09T04:45:33;49.48;43.79;61.05;;
61286;Laerm;56412;53.148;8.204;2022-09-09T04:47:58;48.20;43.74;60.99;;
61286;Laerm;56412;53.148;8.204;2022-09-09T04:50:24;50.42;43.13;64.66;;
61286;Laerm;56412;53.148;8.204;2022-09-09T04:52:50;51.69;44.04;65.77;;
61286;Laerm;56412;53.148;8.204;2022-09-09T04:55:15;64.67;43.94;76.89;;
61286;Laerm;56412;53.148;8.204;2022-09-09T04:57:40;47.86;43.53;63.26;;
61286;Laerm;56412;53.148;8.204;2022-09-09T05:00:07;47.83;43.48;62.36;;
61286;Laerm;56412;53.148;8.204;2022-09-09T05:02:32;50.90;42.95;64.28;;
61286;Laerm;56412;53.148;8.204;2022-09-09T05:04:58;50.87;43.74;66.04;;
61286;Laerm;56412;53.148;8.204;2022-09-09T05:07:24;49.57;42.89;62.64;;
61286;Laerm;56412;53.148;8.204;2022-09-09T05:09:51;52.83;43.79;68.51;;
61286;Laerm;56412;53.148;8.204;2022-09-09T05:12:16;52.81;43.58;68.14;;
61286;Laerm;56412;53.148;8.204;2022-09-09T05:14:43;53.73;43.42;69.47;;
61286;Laerm;56412;53.148;8.204;2022-09-09T05:17:08;54.31;43.42;80.34;;
61286;Laerm;56412;53.148;8.204;2022-09-09T05:19:34;52.03;43.74;65.73;;
61286;Laerm;56412;53.148;8.204;2022-09-09T05:21:59;50.58;44.09;65.52;;
61286;Laerm;56412;53.148;8.204;2022-09-09T05:24:26;55.39;44.28;67.55;;
61286;Laerm;56412;53.148;8.204;2022-09-09T05:26:51;51.53;44.71;62.05;;
61286;Laerm;56412;53.148;8.204;2022-09-09T05:29:17;53.07;44.18;66.21;;
61286;Laerm;56412;53.148;8.204;2022-09-09T05:31:44;50.56;44.83;62.46;;
61286;Laerm;56412;53.148;8.204;2022-09-09T05:34:09;52.66;44.71;68.29;;
61286;Laerm;56412;53.148;8.204;2022-09-09T05:36:35;62.71;44.28;84.44;;
61286;Laerm;56412;53.148;8.204;2022-09-09T05:39:00;59.87;44.04;87.15;;
61286;Laerm;56412;53.148;8.204;2022-09-09T05:41:26;60.76;44.79;80.51;;
61286;Laerm;56412;53.148;8.204;2022-09-09T05:43:52;54.54;44.75;76.00;;
61286;Laerm;56412;53.148;8.204;2022-09-09T05:46:20;60.58;45.07;79.82;;
61286;Laerm;56412;53.148;8.204;2022-09-09T05:48:47;70.16;56.48;81.38;;
61286;Laerm;56412;53.148;8.204;2022-09-09T05:51:15;62.59;56.90;82.32;;
61286;Laerm;56412;53.148;8.204;2022-09-09T05:53:43;63.58;56.76;75.04;;
61286;Laerm;56412;53.148;8.204;2022-09-09T05:56:11;65.24;57.35;75.90;;
61286;Laerm;56412;53.148;8.204;2022-09-09T05:58:38;61.77;56.83;72.70;;
61286;Laerm;56412;53.148;8.204;2022-09-09T06:01:12;61.21;56.79;70.45;;
61286;Laerm;56412;53.148;8.204;2022-09-09T06:03:40;64.80;57.15;77.05;;
61286;Laerm;56412;53.148;8.204;2022-09-09T06:06:13;64.07;57.10;78.53;;
61286;Laerm;56412;53.148;8.204;2022-09-09T06:08:41;63.87;58.22;68.22;;
61286;Laerm;56412;53.148;8.204;2022-09-09T06:11:09;63.81;57.57;71.40;;
61286;Laerm;56412;53.148;8.204;2022-09-09T06:13:36;61.68;57.10;73.45;;
61286;Laerm;56412;53.148;8.204;2022-09-09T06:16:09;61.06;57.02;68.70;;
61286;Laerm;56412;53.148;8.204;2022-09-09T06:18:36;60.60;57.26;72.94;;
61286;Laerm;56412;53.148;8.204;2022-09-09T06:21:04;62.73;57.06;73.77;;
61286;Laerm;56412;53.148;8.204;2022-09-09T06:23:30;61.10;57.05;66.30;;
61286;Laerm;56412;53.148;8.204;2022-09-09T06:26:04;61.52;56.92;72.66;;
61286;Laerm;56412;53.148;8.204;2022-09-09T06:28:33;64.74;57.49;76.80;;
61286;Laerm;56412;53.148;8.204;2022-09-09T06:31:00;61.69;57.30;74.04;;
61286;Laerm;56412;53.148;8.204;2022-09-09T06:33:25;61.48;57.25;70.41;;
61286;Laerm;56412;53.148;8.204;2022-09-09T06:35:52;73.54;57.48;84.26;;
61286;Laerm;56412;53.148;8.204;2022-09-09T06:38:18;70.42;56.79;82.73;;
61286;Laerm;56412;53.148;8.204;2022-09-09T06:40:51;72.44;58.80;80.41;;
61286;Laerm;56412;53.148;8.204;2022-09-09T06:43:16;69.64;57.17;86.53;;
61286;Laerm;56412;53.148;8.204;2022-09-09T06:45:42;74.05;56.54;82.92;;
61286;Laerm;56412;53.148;8.204;2022-09-09T06:48:07;72.15;56.75;84.12;;
61286;Laerm;56412;53.148;8.204;2022-09-09T06:50:34;74.03;58.43;82.67;;
61286;Laerm;56412;53.148;8.204;2022-09-09T06:52:59;71.60;57.53;85.77;;
61286;Laerm;56412;53.148;8.204;2022-09-09T06:55:25;65.52;57.32;84.91;;
61286;Laerm;56412;53.148;8.204;2022-09-09T06:57:50;64.96;56.49;76.53;;
61286;Laerm;56412;53.148;8.204;2022-09-09T07:00:16;75.28;56.95;86.91;;
61286;Laerm;56412;53.148;8.204;2022-09-09T07:02:42;70.71;57.76;84.14;;
61286;Laerm;56412;53.148;8.204;2022-09-09T07:05:07;67.90;57.40;83.43;;
61286;Laerm;56412;53.148;8.204;2022-09-09T07:07:33;66.02;56.93;82.89;;
61286;Laerm;56412;53.148;8.204;2022-09-09T07:09:58;61.36;57.08;69.50;;
61286;Laerm;56412;53.148;8.204;2022-09-09T07:12:24;62.67;57.83;70.04;;
61286;Laerm;56412;53.148;8.204;2022-09-09T07:14:49;61.62;57.16;69.03;;
61286;Laerm;56412;53.148;8.204;2022-09-09T07:17:14;61.73;57.38;69.35;;
61286;Laerm;56412;53.148;8.204;2022-09-09T07:19:41;61.16;57.10;69.36;;
61286;Laerm;56412;53.148;8.204;2022-09-09T07:22:07;62.81;57.60;73.83;;
61286;Laerm;56412;53.148;8.204;2022-09-09T07:24:32;63.20;57.39;73.15;;
61286;Laerm;56412;53.148;8.204;2022-09-09T07:26:57;65.63;59.09;75.10;;
61286;Laerm;56412;53.148;8.204;2022-09-09T07:29:23;64.21;57.40;71.22;;
61286;Laerm;56412;53.148;8.204;2022-09-09T07:31:48;61.26;56.91;73.62;;
61286;Laerm;56412;53.148;8.204;2022-09-09T07:34:14;57.83;41.22;67.60;;
61286;Laerm;56412;53.148;8.204;2022-09-09T07:36:40;52.06;41.22;68.81;;
61286;Laerm;56412;53.148;8.204;2022-09-09T07:39:09;56.65;40.93;79.00;;
61286;Laerm;56412;53.148;8.204;2022-09-09T07:41:45;58.67;40.93;77.43;;
61286;Laerm;56412;53.148;8.204;2022-09-09T07:44:16;50.14;39.55;63.40;;
61286;Laerm;56412;53.148;8.204;2022-09-09T07:46:42;47.78;40.18;61.89;;
61286;Laerm;56412;53.148;8.204;2022-09-09T07:49:09;53.51;41.82;67.33;;
61286;Laerm;56412;53.148;8.204;2022-09-09T07:51:37;50.72;40.93;65.13;;
61286;Laerm;56412;53.148;8.204;2022-09-09T07:54:05;54.88;40.52;71.30;;
61286;Laerm;56412;53.148;8.204;2022-09-09T07:56:31;53.54;46.57;65.24;;
61286;Laerm;56412;53.148;8.204;2022-09-09T07:58:57;52.76;46.85;64.72;;
61286;Laerm;56412;53.148;8.204;2022-09-09T08:01:26;52.15;46.95;66.21;;
61286;Laerm;56412;53.148;8.204;2022-09-09T08:04:02;55.19;40.41;69.13;;
61286;Laerm;56412;53.148;8.204;2022-09-09T08:06:31;50.83;40.83;66.39;;
61286;Laerm;56412;53.148;8.204;2022-09-09T08:08:58;50.65;40.18;66.72;;
61286;Laerm;56412;53.148;8.204;2022-09-09T08:11:26;54.08;40.93;71.26;;
61286;Laerm;56412;53.148;8.204;2022-09-09T08:13:52;53.16;40.41;70.18;;
61286;Laerm;56412;53.148;8.204;2022-09-09T08:16:29;51.13;39.81;71.72;;
61286;Laerm;56412;53.148;8.204;2022-09-09T08:18:56;56.39;41.90;73.05;;
61286;Laerm;56412;53.148;8.204;2022-09-09T08:21:24;58.47;40.73;72.95;;
61286;Laerm;56412;53.148;8.204;2022-09-09T08:23:52;54.26;40.18;73.29;;
61286;Laerm;56412;53.148;8.204;2022-09-09T08:26:21;54.48;40.41;73.41;;
61286;Laerm;56412;53.148;8.204;2022-09-09T08:28:50;51.03;40.63;69.68;;
61286;Laerm;56412;53.148;8.204;2022-09-09T08:31:19;53.51;40.49;76.31;;
61286;Laerm;56412;53.148;8.204;2022-09-09T08:33:45;49.80;40.63;63.61;;
61286;Laerm;56412;53.148;8.204;2022-09-09T08:36:19;53.00;40.30;66.34;;
61286;Laerm;56412;53.148;8.204;2022-09-09T08:38:50;55.32;40.93;76.80;;
61286;Laerm;56412;53.148;8.204;2022-09-09T08:55:24;86.94;57.05;104.24;;
61286;Laerm;56412;53.148;8.204;2022-09-09T08:57:53;61.93;56.92;73.10;;
61286;Laerm;56412;53.148;8.204;2022-09-09T09:00:20;72.66;56.65;91.99;;
61286;Laerm;56412;53.148;8.204;2022-09-09T09:05:32;61.54;56.63;66.76;;
61286;Laerm;56412;53.148;8.204;2022-09-09T09:08:13;64.46;56.75;79.34;;
61286;Laerm;56412;53.148;8.204;2022-09-09T09:10:49;63.72;56.77;82.23;;
61286;Laerm;56412;53.148;8.204;2022-09-09T09:13:33;68.50;59.45;83.58;;
61286;Laerm;56412;53.148;8.204;2022-09-09T09:16:06;63.31;56.51;85.15;;
61286;Laerm;56412;53.148;8.204;2022-09-09T09:18:35;65.90;56.59;79.17;;
61286;Laerm;56412;53.148;8.204;2022-09-09T09:21:16;62.02;56.60;74.59;;
61286;Laerm;56412;53.148;8.204;2022-09-09T09:23:58;63.42;56.76;75.11;;
61286;Laerm;56412;53.148;8.204;2022-09-09T09:26:30;60.80;56.74;71.39;;
61286;Laerm;56412;53.148;8.204;2022-09-09T09:28:56;60.93;56.72;68.65;;
61286;Laerm;56412;53.148;8.204;2022-09-09T09:31:24;60.59;56.56;66.15;;
61286;Laerm;56412;53.148;8.204;2022-09-09T09:33:53;60.19;55.36;68.44;;
61286;Laerm;56412;53.148;8.204;2022-09-09T09:36:21;59.98;56.41;68.37;;
61286;Laerm;56412;53.148;8.204;2022-09-09T09:38:55;63.54;56.64;75.53;;
61286;Laerm;56412;53.148;8.204;2022-09-09T09:41:38;59.63;56.00;66.24;;
61286;Laerm;56412;53.148;8.204;2022-09-09T09:44:18;59.87;56.28;71.92;;
61286;Laerm;56412;53.148;8.204;2022-09-09T09:46:46;61.85;56.57;71.14;;
61286;Laerm;56412;53.148;8.204;2022-09-09T09:49:12;60.88;56.40;73.03;;
61286;Laerm;56412;53.148;8.204;2022-09-09T09:51:39;60.42;56.20;66.99;;
61286;Laerm;56412;53.148;8.204;2022-09-09T09:56:31;62.62;56.70;70.59;;
61286;Laerm;56412;53.148;8.204;2022-09-09T09:58:57;61.88;56.09;67.45;;
61286;Laerm;56412;53.148;8.204;2022-09-09T10:01:26;60.79;56.27;68.53;;
61286;Laerm;56412;53.148;8.204;2022-09-09T10:04:19;59.46;56.00;63.07;;
61286;Laerm;56412;53.148;8.204;2022-09-09T10:06:46;60.84;56.62;70.06;;
61286;Laerm;56412;53.148;8.204;2022-09-09T10:09:24;63.18;56.68;74.59;;
61286;Laerm;56412;53.148;8.204;2022-09-09T10:18:08;68.59;56.99;85.15;;
61286;Laerm;56412;53.148;8.204;2022-09-09T10:23:45;64.24;56.65;74.43;;
61286;Laerm;56412;53.148;8.204;2022-09-09T10:26:29;62.44;56.73;78.46;;
61286;Laerm;56412;53.148;8.204;2022-09-09T10:37:56;63.14;56.60;72.93;;
61286;Laerm;56412;53.148;8.204;2022-09-09T10:40:34;67.01;56.93;75.64;;
61286;Laerm;56412;53.148;8.204;2022-09-09T10:54:55;82.16;56.03;96.49;;
61286;Laerm;56412;53.148;8.204;2022-09-09T10:57:27;59.97;55.98;67.51;;
61286;Laerm;56412;53.148;8.204;2022-09-09T10:59:58;69.63;56.28;83.92;;
61286;Laerm;56412;53.148;8.204;2022-09-09T11:02:30;61.27;56.68;72.36;;
61286;Laerm;56412;53.148;8.204;2022-09-09T11:07:41;67.06;56.83;82.78;;
61286;Laerm;56412;53.148;8.204;2022-09-09T11:10:26;63.22;56.91;75.01;;
61286;Laerm;56412;53.148;8.204;2022-09-09T11:12:59;60.95;56.39;74.87;;
61286;Laerm;56412;53.148;8.204;2022-09-09T11:15:36;60.76;56.66;76.27;;
61286;Laerm;56412;53.148;8.204;2022-09-09T11:18:10;62.41;56.37;75.74;;
61286;Laerm;56412;53.148;8.204;2022-09-09T11:20:39;68.28;55.72;84.97;;
61286;Laerm;56412;53.148;8.204;2022-09-09T11:23:28;62.49;56.21;73.37;;
61286;Laerm;56412;53.148;8.204;2022-09-09T11:26:00;64.83;55.84;82.14;;
61286;Laerm;56412;53.148;8.204;2022-09-09T11:31:44;61.75;56.67;77.73;;
61286;Laerm;56412;53.148;8.204;2022-09-09T11:34:44;60.99;56.85;70.36;;
61286;Laerm;56412;53.148;8.204;2022-09-09T11:40:28;62.95;55.91;70.71;;
61286;Laerm;56412;53.148;8.204;2022-09-09T11:43:10;62.83;56.98;74.26;;
61286;Laerm;56412;53.148;8.204;2022-09-09T11:45:37;60.59;56.23;70.02;;
61286;Laerm;56412;53.148;8.204;2022-09-09T11:48:04;62.95;56.76;76.26;;
61286;Laerm;56412;53.148;8.204;2022-09-09T11:50:36;61.47;56.96;72.19;;
61286;Laerm;56412;53.148;8.204;2022-09-09T11:55:39;63.82;56.69;71.70;;
61286;Laerm;56412;53.148;8.204;2022-09-09T11:58:05;64.82;57.21;79.27;;
61286;Laerm;56412;53.148;8.204;2022-09-09T12:00:48;64.03;57.42;77.73;;
61286;Laerm;56412;53.148;8.204;2022-09-09T12:03:34;67.98;53.93;86.41;;
61286;Laerm;56412;53.148;8.204;2022-09-09T12:06:11;66.96;47.00;92.88;;
61286;Laerm;56412;53.148;8.204;2022-09-09T12:08:41;57.81;44.23;72.11;;
61286;Laerm;56412;53.148;8.204;2022-09-09T12:11:07;53.90;42.06;67.59;;
61286;Laerm;56412;53.148;8.204;2022-09-09T12:13:33;49.18;41.49;65.22;;
61286;Laerm;56412;53.148;8.204;2022-09-09T12:15:59;54.95;41.03;69.91;;
61286;Laerm;56412;53.148;8.204;2022-09-09T12:18:38;51.85;41.74;64.85;;
61286;Laerm;56412;53.148;8.204;2022-09-09T12:23:48;58.45;41.98;77.75;;
61286;Laerm;56412;53.148;8.204;2022-09-09T12:26:25;55.16;41.90;68.12;;
61286;Laerm;56412;53.148;8.204;2022-09-09T12:29:37;52.84;43.07;64.15;;
61286;Laerm;56412;53.148;8.204;2022-09-09T12:32:16;49.94;42.69;65.42;;
61286;Laerm;56412;53.148;8.204;2022-09-09T12:34:47;54.35;41.66;67.33;;
61286;Laerm;56412;53.148;8.204;2022-09-09T12:37:58;48.92;41.49;63.17;;
61286;Laerm;56412;53.148;8.204;2022-09-09T12:40:25;52.04;40.63;65.22;;
61286;Laerm;56412;53.148;8.204;2022-09-09T12:42:51;59.39;40.83;77.35;;
61286;Laerm;56412;53.148;8.204;2022-09-09T12:45:24;53.71;40.30;67.45;;
61286;Laerm;56412;53.148;8.204;2022-09-09T12:47:56;47.72;38.97;61.28;;
61286;Laerm;56412;53.148;8.204;2022-09-09T12:50:25;50.57;40.30;63.84;;
61286;Laerm;56412;53.148;8.204;2022-09-09T12:52:54;51.07;39.95;65.30;;
61286;Laerm;56412;53.148;8.204;2022-09-09T12:55:25;54.71;41.03;66.77;;
61286;Laerm;56412;53.148;8.204;2022-09-09T12:57:53;51.77;41.03;66.91;;
61286;Laerm;56412;53.148;8.204;2022-09-09T13:00:21;51.31;39.68;62.54;;
61286;Laerm;56412;53.148;8.204;2022-09-09T13:05:18;60.30;40.52;67.88;;
61286;Laerm;56412;53.148;8.204;2022-09-09T13:07:44;60.46;55.67;71.05;;
61286;Laerm;56412;53.148;8.204;2022-09-09T13:10:23;64.70;56.26;73.95;;
61286;Laerm;56412;53.148;8.204;2022-09-09T13:12:49;70.19;56.18;84.04;;
61286;Laerm;56412;53.148;8.204;2022-09-09T13:15:21;69.71;56.50;83.27;;
61286;Laerm;56412;53.148;8.204;2022-09-09T13:18:11;60.69;55.97;75.30;;
61286;Laerm;56412;53.148;8.204;2022-09-09T13:20:37;61.26;55.60;71.68;;
61286;Laerm;56412;53.148;8.204;2022-09-09T13:23:03;63.71;56.08;84.10;;
61286;Laerm;56412;53.148;8.204;2022-09-09T13:25:28;69.15;56.80;85.08;;
61286;Laerm;56412;53.148;8.204;2022-09-09T13:28:02;64.62;55.83;85.48;;
61286;Laerm;56412;53.148;8.204;2022-09-09T13:30:33;68.78;56.23;86.50;;
61286;Laerm;56412;53.148;8.204;2022-09-09T13:35:58;61.86;56.58;73.71;;
61286;Laerm;56412;53.148;8.204;2022-09-09T13:38:25;64.07;56.27;75.45;;
61286;Laerm;56412;53.148;8.204;2022-09-09T13:41:19;72.42;55.51;84.08;;
61286;Laerm;56412;53.148;8.204;2022-09-09T13:43:47;61.28;56.29;79.71;;
61286;Laerm;56412;53.148;8.204;2022-09-09T13:46:35;64.53;57.07;80.48;;
61286;Laerm;56412;53.148;8.204;2022-09-09T13:51:44;62.22;56.32;69.59;;
61286;Laerm;56412;53.148;8.204;2022-09-09T13:54:13;61.46;56.21;69.54;;
61286;Laerm;56412;53.148;8.204;2022-09-09T13:56:40;62.14;56.33;77.56;;
61286;Laerm;56412;53.148;8.204;2022-09-09T13:59:09;68.24;55.94;83.65;;
61286;Laerm;56412;53.148;8.204;2022-09-09T14:01:35;61.23;56.28;68.42;;
61286;Laerm;56412;53.148;8.204;2022-09-09T14:04:02;62.26;56.30;71.84;;
61286;Laerm;56412;53.148;8.204;2022-09-09T14:06:29;63.77;55.87;84.39;;
61286;Laerm;56412;53.148;8.204;2022-09-09T14:08:54;60.85;56.22;81.52;;
61286;Laerm;56412;53.148;8.204;2022-09-09T14:11:20;62.25;56.17;71.07;;
61286;Laerm;56412;53.148;8.204;2022-09-09T14:13:46;62.91;56.72;71.92;;
61286;Laerm;56412;53.148;8.204;2022-09-09T14:16:12;61.95;56.41;82.05;;
61286;Laerm;56412;53.148;8.204;2022-09-09T14:18:37;63.78;56.52;86.51;;
61286;Laerm;56412;53.148;8.204;2022-09-09T14:21:03;60.85;56.11;73.63;;
61286;Laerm;56412;53.148;8.204;2022-09-09T14:23:29;61.85;55.60;73.93;;
61286;Laerm;56412;53.148;8.204;2022-09-09T14:25:55;61.30;56.24;70.56;;
61286;Laerm;56412;53.148;8.204;2022-09-09T14:28:21;60.82;56.41;73.26;;
61286;Laerm;56412;53.148;8.204;2022-09-09T14:30:46;61.88;56.07;74.67;;
61286;Laerm;56412;53.148;8.204;2022-09-09T14:33:14;63.80;56.65;80.41;;
61286;Laerm;56412;53.148;8.204;2022-09-09T14:35:40;63.64;56.59;84.55;;
61286;Laerm;56412;53.148;8.204;2022-09-09T14:38:07;64.64;56.25;85.98;;
61286;Laerm;56412;53.148;8.204;2022-09-09T14:40:37;66.28;56.49;85.52;;
61286;Laerm;56412;53.148;8.204;2022-09-09T14:43:04;64.65;56.41;83.62;;
61286;Laerm;56412;53.148;8.204;2022-09-09T14:45:31;65.43;56.88;84.98;;
61286;Laerm;56412;53.148;8.204;2022-09-09T14:47:56;63.53;56.64;82.32;;
61286;Laerm;56412;53.148;8.204;2022-09-09T14:50:23;61.68;56.59;72.34;;
61286;Laerm;56412;53.148;8.204;2022-09-09T14:52:48;61.54;56.41;72.20;;
61286;Laerm;56412;53.148;8.204;2022-09-09T14:55:14;60.67;56.35;74.84;;
61286;Laerm;56412;53.148;8.204;2022-09-09T14:57:40;60.56;56.45;73.20;;
61286;Laerm;56412;53.148;8.204;2022-09-09T15:00:07;62.23;57.21;68.77;;
61286;Laerm;56412;53.148;8.204;2022-09-09T15:02:33;62.78;56.70;70.15;;
61286;Laerm;56412;53.148;8.204;2022-09-09T15:04:58;62.36;55.99;71.75;;
61286;Laerm;56412;53.148;8.204;2022-09-09T15:07:24;61.31;56.59;74.98;;
61286;Laerm;56412;53.148;8.204;2022-09-09T15:09:50;63.04;56.78;77.04;;
61286;Laerm;56412;53.148;8.204;2022-09-09T15:12:15;66.16;56.54;76.12;;
61286;Laerm;56412;53.148;8.204;2022-09-09T15:14:41;64.91;56.47;78.20;;
61286;Laerm;56412;53.148;8.204;2022-09-09T15:17:06;64.23;56.77;77.45;;
61286;Laerm;56412;53.148;8.204;2022-09-09T15:19:31;62.24;56.46;82.85;;
61286;Laerm;56412;53.148;8.204;2022-09-09T15:21:57;61.38;56.16;77.92;;
61286;Laerm;56412;53.148;8.204;2022-09-09T15:24:23;61.70;56.44;72.50;;
61286;Laerm;56412;53.148;8.204;2022-09-09T15:26:48;70.80;56.10;82.10;;
61286;Laerm;56412;53.148;8.204;2022-09-09T15:29:13;66.61;56.74;85.04;;
61286;Laerm;56412;53.148;8.204;2022-09-09T15:31:39;64.07;56.44;84.38;;
61286;Laerm;56412;53.148;8.204;2022-09-09T15:34:06;65.70;56.85;77.48;;
61286;Laerm;56412;53.148;8.204;2022-09-09T15:36:37;62.15;56.44;73.54;;